Time;durP1;ratioP1;P1;durP2;ratioP2;P2;SDS_P1;SDS_P2;PMS_P1;PMS_P2;Temp;Humidity;BMP_temperature;BMP_pressure;BME280_temperature;BME280_humidity;BME280_pressure;Samples;Min_cycle;Max_cycle;Signal;HPM_P1;HPM_P2
2023/04/27 00:01:06;;;;;;;3.27;3.00;;;;;;;10.60;100.00;96644.09;5081707;28;20207;-57
2023/04/27 00:03:33;;;;;;;3.97;3.63;;;;;;;10.58;100.00;96656.66;5080865;28;20694;-59
2023/04/27 00:05:59;;;;;;;4.00;2.90;;;;;;;10.46;100.00;96655.97;5081040;28;20518;-57
2023/04/27 00:08:27;;;;;;;4.40;3.60;;;;;;;10.46;100.00;96648.03;5082005;28;20551;-57
2023/04/27 00:10:54;;;;;;;6.00;3.67;;;;;;;10.46;100.00;96647.19;5082049;28;21407;-63
2023/04/27 00:13:22;;;;;;;3.70;3.40;;;;;;;10.45;100.00;96640.25;5081000;28;20214;-58
2023/04/27 00:15:48;;;;;;;5.13;3.47;;;;;;;10.43;100.00;96652.78;5082037;28;20207;-58
2023/04/27 00:18:15;;;;;;;5.83;3.93;;;;;;;10.41;100.00;96641.53;5081439;28;20217;-58
2023/04/27 00:20:41;;;;;;;3.93;3.63;;;;;;;10.40;100.00;96638.03;5081051;28;20202;-58
2023/04/27 00:23:08;;;;;;;4.57;3.53;;;;;;;10.45;100.00;96637.63;5081362;28;20613;-57
2023/04/27 00:25:35;;;;;;;4.10;3.80;;;;;;;10.46;100.00;96636.63;5080448;28;20627;-57
2023/04/27 00:28:02;;;;;;;7.67;3.93;;;;;;;10.35;100.00;96639.41;5080700;28;20205;-57
2023/04/27 00:30:29;;;;;;;3.73;3.50;;;;;;;10.33;100.00;96636.09;5081391;28;20201;-58
2023/04/27 00:32:55;;;;;;;4.83;3.43;;;;;;;10.33;100.00;96638.75;5082109;28;20210;-57
2023/04/27 00:35:22;;;;;;;4.70;3.90;;;;;;;10.33;100.00;96630.81;5080949;28;20283;-58
2023/04/27 00:37:48;;;;;;;4.93;3.93;;;;;;;10.39;100.00;96632.88;5081584;28;20317;-57
2023/04/27 00:40:15;;;;;;;4.37;3.60;;;;;;;10.36;100.00;96633.16;5081642;28;20193;-57
2023/04/27 00:42:43;;;;;;;4.43;3.93;;;;;;;10.38;100.00;96623.31;5080953;28;20319;-57
2023/04/27 00:45:10;;;;;;;4.23;3.93;;;;;;;10.37;100.00;96621.63;5081773;28;20204;-57
2023/04/27 00:47:37;;;;;;;3.77;3.57;;;;;;;10.34;100.00;96617.47;5083239;28;20564;-58
2023/04/27 00:50:07;;;;;;;4.20;3.90;;;;;;;10.34;100.00;96614.00;5087949;28;20202;-57
2023/04/27 00:52:34;;;;;;;4.03;3.60;;;;;;;10.30;100.00;96615.25;5090766;28;20194;-57
2023/04/27 00:55:03;;;;;;;6.63;3.63;;;;;;;10.29;100.00;96614.41;5090882;28;20217;-57
2023/04/27 00:57:29;;;;;;;3.90;3.60;;;;;;;10.31;100.00;96611.59;5085028;28;20241;-57
2023/04/27 00:59:57;;;;;;;4.70;3.80;;;;;;;10.23;100.00;96611.50;5085371;28;20642;-58
2023/04/27 01:02:23;;;;;;;4.17;3.77;;;;;;;10.26;100.00;96621.78;5084896;28;20217;-58
2023/04/27 01:04:50;;;;;;;3.50;3.30;;;;;;;10.28;100.00;96617.19;5084422;28;20256;-57
2023/04/27 01:07:17;;;;;;;4.00;3.57;;;;;;;10.19;100.00;96625.97;5085365;28;20198;-58
2023/04/27 01:09:43;;;;;;;6.00;4.00;;;;;;;10.14;100.00;96621.09;5084903;28;20202;-57
2023/04/27 01:12:10;;;;;;;6.80;4.33;;;;;;;10.13;100.00;96623.88;5084201;28;20205;-58
2023/04/27 01:14:37;;;;;;;5.23;3.83;;;;;;;10.20;100.00;96623.16;5084118;28;20217;-58
2023/04/27 01:17:05;;;;;;;4.57;3.90;;;;;;;10.15;100.00;96632.50;5084683;28;20202;-58
2023/04/27 01:19:32;;;;;;;4.63;3.57;;;;;;;10.09;100.00;96633.03;5084190;28;20217;-58
2023/04/27 01:21:58;;;;;;;6.03;3.80;;;;;;;10.10;100.00;96630.25;5084429;28;20425;-58
2023/04/27 01:24:26;;;;;;;4.10;3.70;;;;;;;10.15;100.00;96632.50;5083895;28;20211;-58
2023/04/27 01:26:52;;;;;;;4.83;3.73;;;;;;;10.09;100.00;96640.97;5084066;28;20199;-59
2023/04/27 01:29:20;;;;;;;4.87;3.70;;;;;;;10.07;100.00;96638.44;5084410;28;20657;-57
2023/04/27 01:31:46;;;;;;;6.53;4.03;;;;;;;10.13;100.00;96645.81;5084133;28;20207;-59
2023/04/27 01:34:13;;;;;;;4.03;3.70;;;;;;;10.11;100.00;96657.50;5084290;28;20198;-58
2023/04/27 01:36:39;;;;;;;4.20;3.80;;;;;;;10.10;100.00;96651.38;5083834;28;20232;-57
2023/04/27 01:39:08;;;;;;;4.50;4.10;;;;;;;10.08;100.00;96648.06;5084017;28;20607;-58
2023/04/27 01:41:36;;;;;;;4.10;3.67;;;;;;;10.08;100.00;96655.97;5084843;28;20554;-58
2023/04/27 01:44:02;;;;;;;3.77;3.50;;;;;;;10.14;100.00;96655.44;5083987;28;20209;-58
2023/04/27 01:46:29;;;;;;;5.70;3.80;;;;;;;10.15;100.00;96669.50;5083551;28;20214;-57
2023/04/27 01:48:55;;;;;;;4.73;4.23;;;;;;;10.14;100.00;96673.94;5083736;28;20272;-58
2023/04/27 01:51:22;;;;;;;4.93;4.30;;;;;;;10.12;100.00;96669.75;5083682;28;20557;-58
2023/04/27 01:53:48;;;;;;;5.40;4.00;;;;;;;10.10;100.00;96671.69;5084625;28;20228;-57
2023/04/27 01:56:14;;;;;;;4.70;4.30;;;;;;;10.09;100.00;96670.88;5083657;28;20206;-58
2023/04/27 01:58:42;;;;;;;4.70;4.30;;;;;;;10.06;100.00;96672.97;5082022;28;20565;-58
2023/04/27 02:01:09;;;;;;;4.10;3.73;;;;;;;10.04;100.00;96666.97;5082668;28;20216;-57
2023/04/27 02:03:35;;;;;;;5.20;4.40;;;;;;;10.06;100.00;96670.31;5083594;28;20528;-58
2023/04/27 02:06:02;;;;;;;6.13;4.50;;;;;;;10.10;100.00;96667.22;5083289;28;20202;-58
2023/04/27 02:08:28;;;;;;;5.93;4.73;;;;;;;10.12;100.00;96665.31;5083631;28;20206;-57
2023/04/27 02:10:54;;;;;;;6.67;4.97;;;;;;;10.13;100.00;96666.94;5083219;28;20198;-57
2023/04/27 02:13:21;;;;;;;6.30;5.37;;;;;;;10.08;100.00;96668.34;5083074;28;20214;-57
2023/04/27 02:15:49;;;;;;;5.13;4.67;;;;;;;10.11;100.00;96670.72;5082918;28;20199;-58
2023/04/27 02:18:15;;;;;;;5.23;4.73;;;;;;;10.09;100.00;96665.59;5082439;28;20291;-58
2023/04/27 02:20:42;;;;;;;6.00;5.20;;;;;;;10.08;100.00;96669.19;5083527;28;20197;-57
2023/04/27 02:23:08;;;;;;;5.80;5.20;;;;;;;10.00;100.00;96661.97;5082979;28;20214;-58
2023/04/27 02:25:36;;;;;;;7.33;5.40;;;;;;;9.98;100.00;96663.91;5083031;28;20206;-58
2023/04/27 02:28:03;;;;;;;5.53;5.03;;;;;;;10.00;100.00;96655.84;5082834;28;20296;-58
2023/04/27 02:30:30;;;;;;;6.53;5.50;;;;;;;9.94;100.00;96657.25;5082563;28;20863;-58
2023/04/27 02:32:59;;;;;;;6.47;5.47;;;;;;;9.93;100.00;96647.63;5083778;28;20225;-57
2023/04/27 02:35:25;;;;;;;6.47;5.63;;;;;;;9.93;100.00;96641.50;5082173;28;20242;-57
2023/04/27 02:37:51;;;;;;;6.23;5.73;;;;;;;9.90;100.00;96634.72;5082883;28;20226;-58
2023/04/27 02:40:18;;;;;;;5.70;5.30;;;;;;;9.87;100.00;96629.72;5083105;28;20678;-58
2023/04/27 02:42:44;;;;;;;7.53;5.50;;;;;;;9.87;100.00;96629.72;5082780;28;20256;-58
2023/04/27 02:45:11;;;;;;;6.53;5.90;;;;;;;9.84;100.00;96635.28;5082442;28;20198;-58
2023/04/27 02:47:38;;;;;;;5.87;5.37;;;;;;;9.87;100.00;96639.44;5082538;28;20242;-58
2023/04/27 02:50:06;;;;;;;7.67;6.07;;;;;;;9.82;100.00;96642.50;5083639;28;20210;-57
2023/04/27 02:52:33;;;;;;;6.50;5.53;;;;;;;9.86;100.00;96640.41;5082017;28;20272;-57
2023/04/27 02:54:59;;;;;;;6.67;5.93;;;;;;;9.87;100.00;96645.56;5083356;28;20206;-57
2023/04/27 02:57:27;;;;;;;6.57;5.73;;;;;;;9.82;100.00;96642.50;5082603;28;20641;-58
2023/04/27 02:59:53;;;;;;;6.37;5.80;;;;;;;9.84;100.00;96639.72;5082971;28;20271;-58
2023/04/27 03:02:20;;;;;;;6.20;5.47;;;;;;;9.79;100.00;96647.22;5081937;28;20209;-58
2023/04/27 03:04:46;;;;;;;5.80;5.30;;;;;;;9.76;100.00;96640.41;5082053;28;20208;-58
2023/04/27 03:07:14;;;;;;;5.30;4.90;;;;;;;9.77;100.00;96647.38;5082397;28;20214;-58
2023/04/27 03:09:41;;;;;;;5.60;5.10;;;;;;;9.78;100.00;96637.59;5081928;28;20203;-58
2023/04/27 03:12:07;;;;;;;9.67;5.33;;;;;;;9.75;100.00;96649.28;5082598;28;20653;-58
2023/04/27 03:14:34;;;;;;;5.97;5.27;;;;;;;9.72;100.00;96640.81;5084122;28;20651;-58
2023/04/27 03:17:02;;;;;;;5.70;5.20;;;;;;;9.69;100.00;96646.38;5085882;28;20512;-59
2023/04/27 03:19:28;;;;;;;5.57;4.90;;;;;;;9.68;100.00;96648.16;5083611;28;20276;-58
2023/04/27 03:21:55;;;;;;;7.73;5.30;;;;;;;9.65;100.00;96656.38;5084565;28;20642;-57
2023/04/27 03:24:25;;;;;;;6.17;5.10;;;;;;;9.65;100.00;96658.19;5084101;28;20244;-58
2023/04/27 03:26:52;;;;;;;5.70;5.00;;;;;;;9.65;100.00;96655.53;5082436;28;20199;-57
2023/04/27 03:29:18;;;;;;;5.57;5.17;;;;;;;9.67;100.00;96661.53;5082322;28;20233;-57
2023/04/27 03:31:45;;;;;;;5.20;4.80;;;;;;;9.67;100.00;96664.16;5082522;28;20202;-58
2023/04/27 03:34:11;;;;;;;4.97;4.47;;;;;;;9.64;100.00;96665.25;5084071;28;20202;-58
2023/04/27 03:36:37;;;;;;;5.57;4.67;;;;;;;9.61;100.00;96665.53;5092016;28;20264;-58
2023/04/27 03:39:04;;;;;;;5.00;4.47;;;;;;;9.53;100.00;96662.72;5088847;28;20230;-58
2023/04/27 03:41:32;;;;;;;5.20;4.80;;;;;;;9.51;100.00;96656.75;5085380;28;20197;-57
2023/04/27 03:43:58;;;;;;;5.80;5.20;;;;;;;9.44;100.00;96658.28;5084734;28;20205;-58
2023/04/27 03:46:25;;;;;;;6.43;4.70;;;;;;;9.47;100.00;96671.19;5087604;28;20209;-58
2023/04/27 03:48:51;;;;;;;5.30;4.50;;;;;;;9.36;100.00;96666.03;5082830;28;20199;-58
2023/04/27 03:51:18;;;;;;;4.67;4.27;;;;;;;9.36;100.00;96658.13;5083437;28;20202;-58
2023/04/27 03:53:44;;;;;;;5.30;4.67;;;;;;;9.34;100.00;96660.06;5083848;28;20199;-57
2023/04/27 03:56:11;;;;;;;5.63;4.87;;;;;;;9.32;100.00;96662.00;5083732;28;20315;-57
2023/04/27 03:58:39;;;;;;;7.00;4.50;;;;;;;9.20;100.00;96663.09;5082668;28;20311;-58
2023/04/27 04:01:05;;;;;;;5.03;4.53;;;;;;;9.12;100.00;96665.53;5084925;28;20194;-58
2023/04/27 04:03:32;;;;;;;4.93;4.43;;;;;;;9.07;100.00;96659.84;5082657;28;20217;-58
2023/04/27 04:05:58;;;;;;;4.33;4.03;;;;;;;9.02;100.00;96668.16;5082718;28;20206;-56
2023/04/27 04:08:25;;;;;;;4.50;4.20;;;;;;;9.00;100.00;96665.63;5082292;28;20209;-57
2023/04/27 04:10:51;;;;;;;4.73;4.33;;;;;;;9.00;100.00;96670.91;5083024;28;20215;-58
2023/04/27 04:13:18;;;;;;;3.73;3.40;;;;;;;8.94;100.00;96666.16;5082110;28;20207;-59
2023/04/27 04:15:45;;;;;;;5.73;3.77;;;;;;;8.92;100.00;96673.41;5082581;28;20202;-58
2023/04/27 04:18:12;;;;;;;4.40;4.00;;;;;;;8.93;100.00;96682.97;5081881;28;20222;-58
2023/04/27 04:20:38;;;;;;;5.73;3.80;;;;;;;8.83;100.00;96673.31;5082182;28;20209;-58
2023/04/27 04:23:05;;;;;;;4.27;3.77;;;;;;;8.81;100.00;96680.56;5085275;28;20232;-58
2023/04/27 04:25:31;;;;;;;6.27;4.60;;;;;;;8.77;100.00;96668.59;5090495;28;20256;-59
2023/04/27 04:27:58;;;;;;;6.00;5.40;;;;;;;8.69;100.00;96671.88;5087242;28;20564;-59
2023/04/27 04:30:25;;;;;;;6.80;5.50;;;;;;;8.76;100.00;96670.38;5086798;28;20206;-57
2023/04/27 04:32:54;;;;;;;6.90;3.83;;;;;;;8.74;100.00;96674.97;5087627;28;20629;-58
2023/04/27 04:35:20;;;;;;;4.10;3.30;;;;;;;8.67;100.00;96678.25;5085368;28;20245;-57
2023/04/27 04:37:47;;;;;;;3.80;3.50;;;;;;;8.69;100.00;96682.44;5086325;28;20205;-58
2023/04/27 04:40:13;;;;;;;4.50;3.50;;;;;;;8.66;100.00;96672.16;5084786;28;20224;-58
2023/04/27 04:42:40;;;;;;;4.03;3.73;;;;;;;8.65;100.00;96681.00;5085402;28;20206;-58
2023/04/27 04:45:07;;;;;;;3.83;3.43;;;;;;;8.75;100.00;96687.16;5086146;28;20518;-58
2023/04/27 04:47:33;;;;;;;3.90;3.60;;;;;;;8.78;100.00;96686.94;5084625;28;20206;-57
2023/04/27 04:50:01;;;;;;;4.40;3.97;;;;;;;8.86;100.00;96691.53;5085046;28;20203;-58
2023/04/27 04:52:28;;;;;;;4.90;3.90;;;;;;;8.87;100.00;96680.84;5085209;28;20198;-58
2023/04/27 04:54:54;;;;;;;3.47;3.20;;;;;;;8.94;100.00;96682.00;5085302;28;20217;-58
2023/04/27 04:57:21;;;;;;;6.30;4.00;;;;;;;9.03;100.00;96679.53;5084837;28;20197;-58
2023/04/27 04:59:47;;;;;;;5.07;3.57;;;;;;;9.04;100.00;96673.28;5084705;28;20219;-58
2023/04/27 05:02:14;;;;;;;6.70;4.03;;;;;;;9.22;100.00;96680.44;5085038;28;20239;-57
2023/04/27 05:04:40;;;;;;;3.73;3.43;;;;;;;9.27;100.00;96677.41;5084597;28;20706;-58
2023/04/27 05:07:09;;;;;;;5.13;4.10;;;;;;;9.34;100.00;96681.19;5084047;28;20202;-58
2023/04/27 05:09:36;;;;;;;4.67;4.27;;;;;;;9.34;100.00;96673.25;5084523;28;20202;-59
2023/04/27 05:12:03;;;;;;;5.40;4.33;;;;;;;9.39;100.00;96686.88;5084398;28;20204;-58
2023/04/27 05:14:29;;;;;;;4.73;3.73;;;;;;;9.37;100.00;96684.38;5084362;28;20198;-57
2023/04/27 05:16:56;;;;;;;5.27;4.77;;;;;;;9.46;100.00;96682.72;5086201;28;20779;-56
2023/04/27 05:19:24;;;;;;;4.80;4.40;;;;;;;9.45;100.00;96686.34;5086946;28;20234;-58
2023/04/27 05:21:50;;;;;;;5.20;4.70;;;;;;;9.47;100.00;96684.41;5084463;28;20206;-58
2023/04/27 05:24:18;;;;;;;4.67;4.27;;;;;;;9.66;100.00;96684.47;5084169;28;20205;-58
2023/04/27 05:26:44;;;;;;;5.43;4.30;;;;;;;10.15;100.00;96685.34;5083749;28;20193;-57
2023/04/27 05:29:11;;;;;;;5.73;4.93;;;;;;;10.66;100.00;96688.50;5083312;28;20190;-58
2023/04/27 05:31:37;;;;;;;6.67;4.80;;;;;;;10.60;100.00;96690.88;5084490;28;20202;-57
2023/04/27 05:34:04;;;;;;;5.83;5.30;;;;;;;10.69;100.00;96693.50;5084560;28;20216;-58
2023/04/27 05:36:31;;;;;;;5.60;5.10;;;;;;;10.70;100.00;96687.22;5091519;28;20252;-58
2023/04/27 05:38:57;;;;;;;5.67;5.20;;;;;;;10.71;100.00;96693.34;5109764;28;20218;-58
2023/04/27 05:41:25;;;;;;;6.00;5.50;;;;;;;10.71;100.00;96688.91;5097380;28;20631;-59
2023/04/27 05:43:52;;;;;;;7.57;5.50;;;;;;;10.67;100.00;96687.50;5090587;28;20215;-58
2023/04/27 05:46:19;;;;;;;6.57;5.50;;;;;;;10.69;100.00;96693.50;5086320;28;20620;-58
2023/04/27 05:48:46;;;;;;;6.73;5.80;;;;;;;10.70;100.00;96700.44;5085253;28;20529;-58
2023/04/27 05:51:12;;;;;;;7.20;6.50;;;;;;;10.76;100.00;96697.25;5084971;28;20195;-58
2023/04/27 05:53:39;;;;;;;7.43;6.73;;;;;;;10.74;100.00;96699.19;5085101;28;20209;-56
2023/04/27 05:56:07;;;;;;;7.30;5.90;;;;;;;10.76;100.00;96702.56;5084985;28;20202;-57
2023/04/27 05:58:35;;;;;;;7.20;6.07;;;;;;;10.88;100.00;96703.19;5084096;28;20206;-56
2023/04/27 06:01:02;;;;;;;7.03;6.43;;;;;;;10.92;100.00;96702.78;5083758;28;20221;-56
2023/04/27 06:03:29;;;;;;;6.83;6.23;;;;;;;10.90;100.00;96699.44;5084513;28;20216;-55
2023/04/27 06:05:56;;;;;;;8.97;5.83;;;;;;;10.94;100.00;96707.94;5084719;28;20198;-56
2023/04/27 06:08:23;;;;;;;8.17;6.40;;;;;;;10.98;100.00;96707.47;5084574;28;20197;-57
2023/04/27 06:10:50;;;;;;;7.23;6.63;;;;;;;10.94;100.00;96711.41;5083927;28;20206;-56
2023/04/27 06:13:16;;;;;;;7.70;6.90;;;;;;;11.03;100.00;96722.09;5084024;28;20221;-57
2023/04/27 06:15:44;;;;;;;6.90;6.27;;;;;;;11.05;100.00;96718.34;5084742;28;20296;-56
2023/04/27 06:18:11;;;;;;;6.90;6.30;;;;;;;11.06;100.00;96719.16;5083533;28;20221;-57
2023/04/27 06:20:37;;;;;;;6.90;5.97;;;;;;;11.11;100.00;96709.81;5084251;28;20230;-56
2023/04/27 06:23:04;;;;;;;6.93;6.20;;;;;;;11.13;100.00;96712.31;5083586;28;20210;-58
2023/04/27 06:25:31;;;;;;;7.43;6.13;;;;;;;11.16;100.00;96717.34;5082457;28;20209;-56
2023/04/27 06:27:58;;;;;;;6.80;6.23;;;;;;;11.15;100.00;96716.50;5082873;28;20210;-57
2023/04/27 06:30:25;;;;;;;6.83;6.33;;;;;;;11.23;100.00;96713.13;5083156;28;20202;-57
2023/04/27 06:32:52;;;;;;;7.83;6.63;;;;;;;11.36;100.00;96718.91;5083514;28;20700;-57
2023/04/27 06:35:20;;;;;;;7.77;7.07;;;;;;;11.39;100.00;96721.28;5082246;28;20223;-56
2023/04/27 06:37:47;;;;;;;8.70;6.90;;;;;;;11.48;100.00;96717.72;5083546;28;20220;-56
2023/04/27 06:40:13;;;;;;;8.87;6.53;;;;;;;11.59;100.00;96725.50;5082707;28;20272;-57
2023/04/27 06:42:40;;;;;;;9.00;7.27;;;;;;;11.67;100.00;96730.91;5082433;28;20296;-56
2023/04/27 06:45:07;;;;;;;6.97;6.37;;;;;;;11.71;100.00;96726.16;5081813;28;20336;-57
2023/04/27 06:47:34;;;;;;;8.27;6.27;;;;;;;11.87;100.00;96718.38;5082296;28;20217;-57
2023/04/27 06:50:02;;;;;;;10.53;7.33;;;;;;;12.01;100.00;96727.66;5082821;28;20224;-57
2023/04/27 06:52:31;;;;;;;9.30;8.30;;;;;;;12.16;100.00;96732.28;5082712;28;20214;-55
2023/04/27 06:54:58;;;;;;;8.37;7.60;;;;;;;12.26;100.00;96734.84;5082345;28;20205;-56
2023/04/27 06:57:24;;;;;;;8.37;7.30;;;;;;;12.29;100.00;96727.44;5082114;28;20217;-56
2023/04/27 06:59:51;;;;;;;8.00;6.57;;;;;;;12.39;100.00;96732.69;5082001;28;20233;-56
2023/04/27 07:02:17;;;;;;;7.20;6.50;;;;;;;12.65;100.00;96736.22;5082198;28;20205;-55
2023/04/27 07:04:44;;;;;;;6.97;6.37;;;;;;;12.79;100.00;96735.66;5082215;28;20661;-57
2023/04/27 07:07:12;;;;;;;7.90;5.77;;;;;;;12.74;100.00;96740.63;5082378;28;20237;-56
2023/04/27 07:09:38;;;;;;;7.50;6.37;;;;;;;12.81;100.00;96738.16;5082851;28;20194;-56
2023/04/27 07:12:05;;;;;;;7.97;6.40;;;;;;;12.86;100.00;96735.88;5082850;28;20214;-57
2023/04/27 07:14:32;;;;;;;7.30;6.60;;;;;;;12.81;100.00;96743.47;5081481;28;20206;-57
2023/04/27 07:16:59;;;;;;;7.07;6.47;;;;;;;12.75;100.00;96747.56;5082455;28;20630;-56
2023/04/27 07:19:25;;;;;;;8.47;6.60;;;;;;;12.81;100.00;96740.81;5082079;28;20222;-57
2023/04/27 07:21:51;;;;;;;7.20;6.23;;;;;;;12.96;100.00;96744.59;5081788;28;20213;-57
2023/04/27 07:24:20;;;;;;;7.20;6.13;;;;;;;12.96;98.88;96749.91;5081891;28;20210;-56
2023/04/27 07:26:46;;;;;;;6.17;5.63;;;;;;;13.01;100.00;96746.75;5082335;28;20264;-57
2023/04/27 07:29:16;;;;;;;7.80;5.53;;;;;;;13.09;100.00;96752.13;5081597;28;20202;-57
2023/04/27 07:31:42;;;;;;;8.53;6.30;;;;;;;13.21;100.00;96740.31;5082259;28;20206;-57
2023/04/27 07:34:10;;;;;;;6.43;5.83;;;;;;;13.34;100.00;96746.03;5081644;28;20202;-57
2023/04/27 07:36:36;;;;;;;10.43;6.38;;;;;;;13.32;98.55;96742.69;5081892;28;20562;-57
2023/04/27 07:39:03;;;;;;;6.88;5.93;;;;;;;13.53;100.00;96737.84;5081580;28;20556;-56
2023/04/27 07:41:33;;;;;;;7.67;6.00;;;;;;;13.79;99.53;96738.59;5082374;28;20216;-57
2023/04/27 07:43:59;;;;;;;9.38;6.00;;;;;;;14.16;98.87;96730.25;5081041;28;20206;-57
2023/04/27 07:46:26;;;;;;;6.38;5.78;;;;;;;14.34;96.30;96728.31;5082231;28;20195;-56
2023/04/27 07:48:54;;;;;;;9.07;6.55;;;;;;;14.45;96.40;96727.16;5081281;28;20234;-56
2023/04/27 07:51:20;;;;;;;6.80;5.72;;;;;;;14.69;95.45;96729.00;5082272;28;20210;-57
2023/04/27 07:53:47;;;;;;;6.40;5.75;;;;;;;14.90;93.40;96727.50;5089941;28;20631;-57
2023/04/27 07:56:13;;;;;;;6.20;5.35;;;;;;;15.26;92.66;96721.78;5088928;28;20228;-57
2023/04/27 07:58:41;;;;;;;7.57;5.82;;;;;;;15.27;91.99;96723.44;5083663;28;20669;-57
2023/04/27 08:01:07;;;;;;;6.30;5.70;;;;;;;15.02;84.87;96727.16;5082102;28;20229;-57
2023/04/27 08:03:34;;;;;;;6.15;5.60;;;;;;;15.19;86.72;96726.13;5082240;28;20253;-57
2023/04/27 08:06:00;;;;;;;8.98;6.25;;;;;;;15.37;84.97;96714.25;5086741;28;20221;-56
2023/04/27 08:08:26;;;;;;;7.47;5.25;;;;;;;15.48;88.63;96715.72;5082767;28;20267;-57
2023/04/27 08:10:53;;;;;;;6.72;5.60;;;;;;;15.61;84.45;96721.38;5083986;28;20217;-57
2023/04/27 08:13:19;;;;;;;6.53;5.90;;;;;;;15.61;83.05;96725.88;5086138;28;20258;-58
2023/04/27 08:15:47;;;;;;;6.53;5.90;;;;;;;15.74;82.43;96716.31;5090870;28;20217;-57
2023/04/27 08:18:13;;;;;;;6.35;5.75;;;;;;;15.90;82.68;96720.75;5089376;28;20202;-57
2023/04/27 08:20:40;;;;;;;10.30;7.22;;;;;;;15.86;86.06;96711.44;5081403;28;20681;-57
2023/04/27 08:23:06;;;;;;;9.05;7.43;;;;;;;15.94;86.14;96717.53;5081235;28;20206;-56
2023/04/27 08:25:33;;;;;;;6.88;6.05;;;;;;;15.72;84.44;96718.34;5081566;28;20200;-57
2023/04/27 08:28:00;;;;;;;6.50;5.90;;;;;;;15.64;82.05;96717.53;5080566;28;20197;-57
2023/04/27 08:30:27;;;;;;;10.43;6.32;;;;;;;15.81;82.23;96714.63;5081354;28;20206;-57
2023/04/27 08:32:55;;;;;;;7.45;6.75;;;;;;;15.59;84.41;96715.38;5081956;28;20203;-57
2023/04/27 08:35:21;;;;;;;9.32;6.38;;;;;;;15.62;83.26;96715.06;5080485;28;20233;-56
2023/04/27 08:37:48;;;;;;;8.75;6.93;;;;;;;15.68;86.15;96725.03;5082207;28;20199;-56
2023/04/27 08:40:14;;;;;;;7.50;6.75;;;;;;;15.83;87.36;96712.63;5080816;28;20229;-56
2023/04/27 08:42:52;;;;;;;6.95;6.28;;;;;;;15.92;82.54;96719.56;5080388;28;20611;-57
2023/04/27 08:45:19;;;;;;;8.15;6.93;;;;;;;16.04;85.31;96716.53;5080655;28;20649;-57
2023/04/27 08:47:45;;;;;;;7.95;7.07;;;;;;;16.42;84.18;96716.44;5080577;28;20206;-58
2023/04/27 08:50:13;;;;;;;6.95;5.85;;;;;;;16.52;79.75;96720.69;5080657;28;20209;-56
2023/04/27 08:52:39;;;;;;;9.35;5.55;;;;;;;16.60;73.55;96713.50;5080940;28;20210;-56
2023/04/27 08:55:07;;;;;;;6.75;5.50;;;;;;;16.83;76.03;96708.13;5080980;28;20217;-57
2023/04/27 08:57:34;;;;;;;6.95;5.20;;;;;;;17.56;74.43;96705.59;5080332;28;20216;-57
2023/04/27 09:00:10;;;;;;;5.93;5.13;;;;;;;18.10;73.15;96707.94;5080731;28;20214;-56
2023/04/27 09:02:37;;;;;;;5.80;5.30;;;;;;;18.62;71.16;96707.69;5080460;28;20301;-57
2023/04/27 09:05:04;;;;;;;7.60;5.53;;;;;;;18.70;68.10;96703.06;5080880;28;20646;-57
2023/04/27 09:07:32;;;;;;;8.40;4.88;;;;;;;18.86;71.29;96705.47;5081635;28;20198;-57
2023/04/27 09:10:05;;;;;;;6.32;5.22;;;;;;;18.59;65.85;96698.22;5083990;28;20664;-56
2023/04/27 09:12:31;;;;;;;6.95;5.65;;;;;;;18.95;67.19;96697.28;5084407;28;20661;-57
2023/04/27 09:14:58;;;;;;;5.85;5.30;;;;;;;19.04;64.44;96693.44;5085397;28;20292;-57
2023/04/27 09:17:26;;;;;;;8.48;5.35;;;;;;;18.51;67.09;96700.16;5085238;28;20202;-57
2023/04/27 09:19:53;;;;;;;6.03;4.38;;;;;;;18.73;65.26;96694.63;5085294;28;20526;-57
2023/04/27 09:22:19;;;;;;;6.80;4.50;;;;;;;18.75;64.00;96695.25;5084343;28;20202;-56
2023/04/27 09:24:52;;;;;;;4.68;4.10;;;;;;;18.86;63.37;96693.91;5083574;28;20702;-57
2023/04/27 09:27:22;;;;;;;5.82;3.90;;;;;;;18.75;66.58;96702.47;5083782;28;20245;-57
2023/04/27 09:29:48;;;;;;;4.28;3.40;;;;;;;19.02;63.76;96698.16;5084458;28;20280;-57
2023/04/27 09:32:16;;;;;;;4.72;3.95;;;;;;;19.01;62.11;96691.16;5084540;28;20207;-57
2023/04/27 09:34:43;;;;;;;6.38;3.90;;;;;;;19.13;61.15;96690.41;5083571;28;20248;-57
2023/04/27 09:37:10;;;;;;;5.25;4.22;;;;;;;19.24;56.97;96695.22;5083959;28;20213;-58
2023/04/27 09:39:36;;;;;;;6.18;3.78;;;;;;;19.91;57.87;96693.81;5084058;28;20206;-57
2023/04/27 09:42:04;;;;;;;7.57;4.30;;;;;;;19.85;58.55;96685.50;5084485;28;20210;-57
2023/04/27 09:44:31;;;;;;;4.38;3.72;;;;;;;19.69;57.11;96690.41;5083511;28;20209;-56
2023/04/27 09:46:58;;;;;;;4.50;4.10;;;;;;;20.04;58.01;96688.47;5083471;28;20285;-57
2023/04/27 09:49:26;;;;;;;3.47;2.97;;;;;;;20.15;58.83;96695.97;5083748;28;20206;-57
2023/04/27 09:51:53;;;;;;;5.22;3.40;;;;;;;20.00;55.17;96687.22;5083654;28;20271;-58
2023/04/27 09:54:20;;;;;;;4.55;3.30;;;;;;;20.07;58.60;96682.72;5083068;28;20220;-58
2023/04/27 09:56:52;;;;;;;4.43;3.30;;;;;;;19.78;55.53;96679.28;5083558;28;20203;-57
2023/04/27 09:59:33;;;;;;;5.63;3.00;;;;;;;20.07;56.81;96678.16;5084572;28;20194;-57
2023/04/27 10:02:00;;;;;;;3.63;2.88;;;;;;;20.00;56.01;96676.47;5084968;28;20527;-57
2023/04/27 10:04:45;;;;;;;2.67;2.47;;;;;;;19.61;54.49;96680.66;5086167;28;20202;-58
2023/04/27 10:07:13;;;;;;;3.10;2.80;;;;;;;19.86;56.08;96680.97;5085472;28;20218;-57
2023/04/27 10:09:41;;;;;;;3.38;2.53;;;;;;;20.05;57.37;96679.41;5085730;28;20202;-57
2023/04/27 10:12:15;;;;;;;3.53;2.53;;;;;;;19.60;58.81;96670.94;5085521;28;20198;-57
2023/04/27 10:14:51;;;;;;;2.40;2.20;;;;;;;19.40;58.18;96675.34;5083793;28;20213;-57
2023/04/27 10:17:18;;;;;;;3.80;2.72;;;;;;;19.42;57.66;96673.31;5084687;28;20205;-56
2023/04/27 10:19:55;;;;;;;3.10;2.90;;;;;;;19.61;60.20;96664.56;5083275;28;20213;-57
2023/04/27 10:22:21;;;;;;;3.72;2.95;;;;;;;19.74;59.58;96669.16;5083500;28;20213;-57
2023/04/27 10:24:49;;;;;;;3.03;2.83;;;;;;;19.52;57.97;96672.97;5082732;28;20206;-58
2023/04/27 10:27:18;;;;;;;3.30;3.00;;;;;;;19.64;58.18;96661.47;5083786;28;20202;-57
2023/04/27 10:29:46;;;;;;;2.90;2.70;;;;;;;19.78;59.48;96665.03;5085354;28;20202;-58
2023/04/27 10:32:22;;;;;;;3.28;2.88;;;;;;;20.06;60.30;96667.63;5085362;28;20570;-57
2023/04/27 10:34:49;;;;;;;7.72;3.22;;;;;;;20.05;57.50;96666.78;5083903;28;20806;-57
2023/04/27 10:37:16;;;;;;;3.25;3.00;;;;;;;20.36;58.22;96671.69;5083861;28;20194;-58
2023/04/27 10:39:44;;;;;;;3.20;2.90;;;;;;;20.35;55.70;96661.97;5083120;28;20199;-57
2023/04/27 10:42:11;;;;;;;3.42;3.10;;;;;;;20.54;54.65;96661.19;5082573;28;20222;-57
2023/04/27 10:44:38;;;;;;;3.67;3.00;;;;;;;20.74;55.51;96651.25;5082502;28;20230;-57
2023/04/27 10:47:15;;;;;;;3.30;2.80;;;;;;;20.09;52.84;96653.78;5082405;28;20206;-56
2023/04/27 10:49:41;;;;;;;3.88;3.00;;;;;;;20.28;55.50;96647.69;5082356;28;20195;-57
2023/04/27 10:52:08;;;;;;;3.63;2.78;;;;;;;20.69;57.51;96651.03;5083151;28;20209;-57
2023/04/27 10:54:35;;;;;;;2.50;2.30;;;;;;;20.66;54.03;96643.41;5082949;28;20206;-58
2023/04/27 10:57:03;;;;;;;3.38;3.03;;;;;;;20.51;54.53;96647.31;5083115;28;20198;-57
2023/04/27 10:59:30;;;;;;;3.78;2.60;;;;;;;20.73;55.24;96641.53;5081766;28;20205;-57
2023/04/27 11:01:56;;;;;;;2.42;2.33;;;;;;;20.60;52.04;96638.84;5082301;28;20545;-58
2023/04/27 11:04:35;;;;;;;3.70;2.53;;;;;;;20.50;52.90;96645.66;5081807;28;20639;-57
2023/04/27 11:07:03;;;;;;;2.70;2.50;;;;;;;20.38;54.73;96642.75;5083441;28;20206;-56
2023/04/27 11:09:30;;;;;;;5.97;2.53;;;;;;;20.76;53.45;96633.06;5082464;28;20205;-57
2023/04/27 11:11:56;;;;;;;4.97;2.50;;;;;;;21.03;55.82;96636.59;5082229;28;20544;-57
2023/04/27 11:14:23;;;;;;;2.92;2.30;;;;;;;20.79;51.87;96639.91;5081551;28;20284;-57
2023/04/27 11:16:49;;;;;;;2.60;2.40;;;;;;;20.11;53.86;96641.84;5082937;28;20635;-57
2023/04/27 11:19:16;;;;;;;3.25;2.30;;;;;;;20.14;54.66;96641.44;5083061;28;20210;-56
2023/04/27 11:21:44;;;;;;;2.28;2.08;;;;;;;19.95;53.47;96641.34;5083061;28;20221;-57
2023/04/27 11:24:11;;;;;;;1.92;1.80;;;;;;;19.67;51.12;96636.91;5082603;28;20198;-57
2023/04/27 11:26:37;;;;;;;2.55;1.85;;;;;;;19.48;55.42;96640.34;5083496;28;20202;-56
2023/04/27 11:29:08;;;;;;;2.78;2.00;;;;;;;19.47;53.91;96632.50;5082282;28;20256;-57